Time;durP1;ratioP1;P1;durP2;ratioP2;P2;SDS_P1;SDS_P2;PMS_P1;PMS_P2;Temp;Humidity;BMP_temperature;BMP_pressure;BME280_temperature;BME280_humidity;BME280_pressure;Samples;Min_cycle;Max_cycle;Signal;HPM_P1;HPM_P2
2023/09/26 13:24:18;;;;;;;22.60;14.50;;;;;;;21.68;100.00;101393.63;648424;1297;545482;-76
2023/09/26 13:39:25;;;;;;;21.70;14.10;;;;;;;22.45;99.23;101386.52;663496;1273;139819;-76
2023/09/26 13:54:30;;;;;;;29.50;15.40;;;;;;;22.36;98.50;101373.98;663077;1272;139926;-77
2023/09/26 14:11:15;;;;;;;22.20;15.90;;;;;;;22.19;98.65;101370.59;651085;1289;628449;-77
2023/09/26 14:26:19;;;;;;;29.40;15.90;;;;;;;22.33;96.57;101361.60;663323;1273;138910;-75
2023/09/26 14:41:23;;;;;;;22.90;16.50;;;;;;;22.48;95.32;101351.99;662756;1273;139227;-76
2023/09/26 14:56:26;;;;;;;36.50;19.80;;;;;;;22.12;96.14;101345.66;670669;1285;138453;-78
2023/09/26 15:11:30;;;;;;;22.80;14.20;;;;;;;22.17;96.46;101339.32;663564;1275;139031;-77
2023/09/26 15:26:33;;;;;;;27.60;19.20;;;;;;;22.04;96.76;101336.92;663978;1271;140723;-78
2023/09/26 15:41:37;;;;;;;35.80;20.70;;;;;;;21.99;96.92;101333.77;663898;1285;139863;-78
2023/09/26 15:56:40;;;;;;;38.80;29.70;;;;;;;21.69;98.16;101329.96;663745;1277;139128;-78
2023/09/26 16:11:44;;;;;;;30.40;17.50;;;;;;;21.28;99.81;101330.63;663745;1272;139119;-77
2023/09/26 16:26:47;;;;;;;48.10;26.10;;;;;;;21.00;99.87;101324.49;663655;1275;139987;-77
2023/09/26 16:41:52;;;;;;;56.50;33.00;;;;;;;20.49;99.95;101328.48;663172;1274;140445;-77
2023/09/26 16:56:55;;;;;;;38.80;22.90;;;;;;;19.83;100.00;101330.05;663508;1274;139208;-78
2023/09/26 17:11:58;;;;;;;48.00;27.50;;;;;;;19.20;100.00;101324.44;663054;1274;140083;-77
2023/09/26 17:27:02;;;;;;;33.90;19.30;;;;;;;18.86;100.00;101321.52;663290;1274;139749;-78
2023/09/26 17:42:06;;;;;;;35.80;20.50;;;;;;;18.40;100.00;101313.97;665166;1270;140162;-78
2023/09/26 17:57:09;;;;;;;34.30;20.50;;;;;;;18.11;100.00;101307.73;665431;1277;139455;-77
2023/09/26 18:12:13;;;;;;;36.60;22.50;;;;;;;18.32;100.00;101307.52;662726;1275;140052;-78
2023/09/26 18:27:16;;;;;;;34.00;21.60;;;;;;;18.02;100.00;101304.19;668528;1272;139741;-78
2023/09/26 18:42:20;;;;;;;42.00;22.90;;;;;;;17.94;100.00;101309.09;669683;1263;139182;-76
2023/09/26 18:57:24;;;;;;;48.00;24.90;;;;;;;17.82;100.00;101313.91;667989;1263;139757;-77
2023/09/26 19:12:27;;;;;;;50.20;28.00;;;;;;;17.60;100.00;101317.50;667890;1264;139423;-76
2023/09/26 19:27:31;;;;;;;63.10;36.70;;;;;;;17.90;100.00;101315.49;669878;1265;139761;-77
2023/09/26 19:42:35;;;;;;;39.90;23.00;;;;;;;17.75;100.00;101316.02;668925;1273;139047;-77
2023/09/26 19:57:39;;;;;;;40.90;23.70;;;;;;;17.46;100.00;101310.28;673696;1263;139836;-77
2023/09/26 20:12:43;;;;;;;69.10;37.40;;;;;;;16.71;100.00;101303.00;678952;1263;139351;-78
2023/09/26 20:27:50;;;;;;;80.50;39.20;;;;;;;16.58;100.00;101308.10;671118;1263;139078;-78
2023/09/26 20:42:55;;;;;;;;;;;;;;;16.13;100.00;101312.27;668853;1276;139585;-78
2023/09/26 20:57:58;;;;;;;123.50;60.80;;;;;;;16.15;100.00;101311.17;668886;1267;126769;-78
2023/09/26 21:13:02;;;;;;;115.60;53.50;;;;;;;15.92;100.00;101309.49;668619;1264;140354;-78
2023/09/26 21:28:05;;;;;;;72.00;36.70;;;;;;;15.72;100.00;101307.23;668280;1264;139515;-78
2023/09/26 21:43:09;;;;;;;82.20;41.10;;;;;;;15.62;100.00;101311.21;669395;1263;140340;-77
2023/09/26 21:58:12;;;;;;;109.40;49.90;;;;;;;15.57;100.00;101306.00;669376;1261;140172;-78
2023/09/26 22:13:16;;;;;;;91.20;44.10;;;;;;;15.50;100.00;101289.86;670499;1260;139607;-78
2023/09/26 22:28:19;;;;;;;78.10;39.20;;;;;;;15.36;100.00;101290.85;669461;1260;139175;-78
2023/09/26 22:43:23;;;;;;;88.70;46.40;;;;;;;15.24;100.00;101289.84;668875;1273;140764;-78
2023/09/26 22:58:26;;;;;;;70.20;38.80;;;;;;;15.12;100.00;101287.77;669427;1263;140778;-77
2023/09/26 23:13:30;;;;;;;69.90;32.90;;;;;;;15.01;100.00;101285.98;669287;1273;140552;-77
2023/09/26 23:28:33;;;;;;;66.10;32.80;;;;;;;14.98;100.00;101287.65;668233;1263;139647;-77
2023/09/26 23:43:37;;;;;;;53.00;28.70;;;;;;;15.39;100.00;101282.14;668799;1260;139417;-77
2023/09/26 23:58:40;;;;;;;45.70;26.00;;;;;;;15.22;100.00;101274.18;669115;1274;139919;-79
